createdAt,value
2018-11-01T00:00:50.989Z,71.40
2018-11-01T00:03:19.779Z,71.50
2018-11-01T00:05:48.303Z,72.40
2018-11-01T00:08:17.452Z,72.60
2018-11-01T00:10:45.902Z,72.80
2018-11-01T00:13:14.627Z,72.40
2018-11-01T00:18:13.283Z,73.00
2018-11-01T00:20:41.651Z,73.50
2018-11-01T00:23:10.012Z,73.00
2018-11-01T00:25:38.393Z,73.40
2018-11-01T00:28:07.907Z,73.60
2018-11-01T00:30:36.858Z,72.30
2018-11-01T00:33:05.795Z,70.60
2018-11-01T00:35:34.274Z,70.60
2018-11-01T00:40:31.964Z,72.20
2018-11-01T00:43:00.549Z,72.60
2018-11-01T00:47:59.344Z,73.20
2018-11-01T00:50:28.122Z,72.70
2018-11-01T00:52:56.562Z,71.80
2018-11-01T00:55:25.813Z,72.50
2018-11-01T00:57:54.282Z,71.80
2018-11-01T01:00:22.798Z,72.00
2018-11-01T01:02:51.456Z,72.50
2018-11-01T01:05:20.829Z,72.30
2018-11-01T01:07:49.311Z,73.30
2018-11-01T01:10:18.181Z,72.80
2018-11-01T01:12:47.876Z,71.70
2018-11-01T01:15:16.827Z,72.20
2018-11-01T01:17:45.593Z,72.80
2018-11-01T01:20:15.428Z,73.60
2018-11-01T01:22:45.208Z,73.70
2018-11-01T01:25:14.951Z,74.60
2018-11-01T01:27:43.296Z,73.70
2018-11-01T01:30:15.469Z,73.70
2018-11-01T01:32:44.303Z,74.40
2018-11-01T01:35:13.110Z,74.20
2018-11-01T01:37:42.077Z,73.90
2018-11-01T01:40:11.209Z,74.20
2018-11-01T01:42:45.291Z,75.10
2018-11-01T01:45:14.676Z,74.40
2018-11-01T01:47:43.056Z,75.10
2018-11-01T01:50:13.302Z,75.50
2018-11-01T01:52:42.423Z,76.00
2018-11-01T01:55:14.342Z,77.10
2018-11-01T01:57:43.300Z,76.30
2018-11-01T02:00:14.560Z,76.50
2018-11-01T02:02:45.647Z,76.70
2018-11-01T02:05:14.376Z,77.10
2018-11-01T02:07:42.749Z,77.70
2018-11-01T02:10:13.339Z,77.90
2018-11-01T02:12:42.000Z,78.00
2018-11-01T02:15:13.540Z,77.80
2018-11-01T02:17:42.394Z,76.70
2018-11-01T02:20:14.269Z,77.20
2018-11-01T02:22:43.631Z,77.40
2018-11-01T02:25:12.620Z,77.20
2018-11-01T02:27:46.670Z,77.50
2018-11-01T02:30:16.385Z,77.00
2018-11-01T02:32:45.523Z,77.60
2018-11-01T02:35:16.007Z,78.20
2018-11-01T02:37:44.899Z,78.50
2018-11-01T02:40:13.884Z,78.40
2018-11-01T02:42:43.848Z,78.40
2018-11-01T02:45:13.199Z,77.80
2018-11-01T02:47:42.216Z,77.90
2018-11-01T02:50:11.489Z,78.40
2018-11-01T02:52:40.877Z,78.30
2018-11-01T02:55:09.952Z,78.30
2018-11-01T02:57:39.528Z,78.90
2018-11-01T03:00:11.263Z,79.20
2018-11-01T03:02:40.695Z,79.30
2018-11-01T03:05:10.376Z,80.00
2018-11-01T03:07:39.048Z,79.80
2018-11-01T03:10:10.977Z,80.30
2018-11-01T03:12:39.921Z,79.10
2018-11-01T03:15:11.264Z,79.20
2018-11-01T03:17:39.752Z,78.30
2018-11-01T03:20:09.304Z,78.30
2018-11-01T03:22:38.027Z,78.30
2018-11-01T03:25:08.344Z,78.30
2018-11-01T03:27:37.310Z,77.70
2018-11-01T03:32:34.912Z,77.60
2018-11-01T03:35:03.914Z,77.20
2018-11-01T03:37:32.569Z,78.30
2018-11-01T03:40:01.005Z,78.20
2018-11-01T03:42:29.411Z,78.30
2018-11-01T03:44:58.370Z,77.00
2018-11-01T03:47:26.884Z,77.60
2018-11-01T03:49:55.912Z,78.30
2018-11-01T03:52:24.366Z,77.70
2018-11-01T03:54:53.020Z,77.20
2018-11-01T03:57:21.403Z,78.50
2018-11-01T03:59:50.148Z,78.60
2018-11-01T04:02:19.065Z,78.10
2018-11-01T04:04:47.627Z,78.10
2018-11-01T04:07:16.010Z,78.10
2018-11-01T04:09:45.079Z,78.40
2018-11-01T04:12:14.145Z,79.20
2018-11-01T04:14:42.961Z,79.60
2018-11-01T04:17:13.800Z,79.70
2018-11-01T04:19:42.495Z,80.00
2018-11-01T04:22:11.144Z,80.00
2018-11-01T04:24:39.818Z,80.10
2018-11-01T04:27:08.264Z,79.90
2018-11-01T04:29:37.324Z,78.90
2018-11-01T04:32:05.819Z,78.30
2018-11-01T04:34:34.232Z,78.60
2018-11-01T04:37:03.127Z,78.80
2018-11-01T04:39:31.821Z,79.40
2018-11-01T04:42:00.354Z,79.00
2018-11-01T04:44:31.491Z,79.40
2018-11-01T04:47:02.383Z,78.70
2018-11-01T04:49:33.193Z,78.90
2018-11-01T04:52:03.947Z,78.80
2018-11-01T04:54:34.518Z,78.30
2018-11-01T04:57:04.447Z,78.00
2018-11-01T04:59:35.393Z,78.50
2018-11-01T05:02:04.136Z,77.60
2018-11-01T05:04:32.714Z,76.40
2018-11-01T05:07:01.078Z,76.20
2018-11-01T05:09:29.436Z,76.80
2018-11-01T05:11:57.893Z,77.40
2018-11-01T05:14:26.880Z,76.00
2018-11-01T05:16:55.213Z,77.20
2018-11-01T05:19:24.223Z,77.20
2018-11-01T05:21:53.142Z,78.40
2018-11-01T05:24:22.666Z,78.80
2018-11-01T05:26:51.079Z,78.80
2018-11-01T05:29:19.495Z,79.10
2018-11-01T05:31:48.356Z,78.40
2018-11-01T05:34:17.091Z,78.90
2018-11-01T05:36:45.556Z,79.40
2018-11-01T05:39:14.207Z,79.50
2018-11-01T05:41:43.488Z,80.00
2018-11-01T05:44:12.871Z,79.10
2018-11-01T05:46:41.951Z,79.70
2018-11-01T05:49:10.696Z,78.90
2018-11-01T05:51:39.720Z,79.30
2018-11-01T05:54:08.346Z,78.20
2018-11-01T05:56:36.799Z,76.60
2018-11-01T05:59:06.076Z,75.50
2018-11-01T06:01:36.235Z,76.30
2018-11-01T06:04:04.649Z,74.70
2018-11-01T06:06:32.991Z,74.30
2018-11-01T06:09:04.421Z,72.80
2018-11-01T06:11:32.911Z,73.40
2018-11-01T06:14:01.365Z,72.70
2018-11-01T06:16:29.971Z,73.30
2018-11-01T06:19:01.674Z,73.40
2018-11-01T06:21:30.740Z,73.80
2018-11-01T06:23:59.347Z,74.20
2018-11-01T06:26:28.003Z,74.50
2018-11-01T06:28:57.088Z,74.70
2018-11-01T06:31:26.018Z,75.20
2018-11-01T06:33:55.045Z,72.70
2018-11-01T06:36:23.369Z,73.70
2018-11-01T06:38:52.557Z,73.70
2018-11-01T06:41:21.280Z,74.30
2018-11-01T06:43:50.175Z,74.80
2018-11-01T06:46:18.851Z,75.60
2018-11-01T06:48:47.504Z,74.90
2018-11-01T06:51:15.941Z,74.80
2018-11-01T06:53:44.399Z,75.20
2018-11-01T06:56:12.763Z,74.50
2018-11-01T06:58:41.510Z,75.10
2018-11-01T07:01:09.840Z,72.70
2018-11-01T07:03:41.250Z,73.30
2018-11-01T07:06:09.712Z,73.80
2018-11-01T07:11:06.713Z,75.10
2018-11-01T07:13:35.110Z,75.60
2018-11-01T07:16:03.856Z,76.00
2018-11-01T07:18:32.370Z,75.50
2018-11-01T07:21:01.485Z,74.50
2018-11-01T07:23:29.891Z,73.80
2018-11-01T07:25:58.705Z,73.90
2018-11-01T07:28:27.091Z,71.60
2018-11-01T07:30:55.583Z,71.90
2018-11-01T07:33:23.930Z,72.70
2018-11-01T07:35:52.589Z,73.30
2018-11-01T07:38:21.372Z,73.20
2018-11-01T07:40:50.306Z,73.40
2018-11-01T07:43:19.056Z,73.60
2018-11-01T07:45:47.940Z,73.60
2018-11-01T07:48:16.318Z,74.10
2018-11-01T07:50:44.785Z,71.60
2018-11-01T07:53:13.187Z,70.70
2018-11-01T07:55:41.519Z,71.40
2018-11-01T07:58:10.042Z,70.10
2018-11-01T08:00:38.826Z,70.70
2018-11-01T08:03:07.251Z,71.00
2018-11-01T08:05:35.693Z,70.60
2018-11-01T08:08:04.026Z,69.80
2018-11-01T08:10:33.053Z,68.80
2018-11-01T08:13:03.746Z,70.20
2018-11-01T08:15:32.360Z,69.60
2018-11-01T08:18:02.619Z,70.00
2018-11-01T08:20:31.191Z,70.00
2018-11-01T08:23:00.614Z,70.50
2018-11-01T08:25:29.151Z,68.90
2018-11-01T08:27:57.886Z,69.40
2018-11-01T08:30:26.626Z,69.10
2018-11-01T08:32:55.109Z,69.30
2018-11-01T08:35:23.645Z,68.20
2018-11-01T08:37:52.380Z,69.10
2018-11-01T08:40:21.031Z,67.90
2018-11-01T08:42:49.387Z,68.60
2018-11-01T08:45:18.133Z,67.70
2018-11-01T08:47:46.941Z,67.10
2018-11-01T08:50:18.672Z,67.60
2018-11-01T08:52:47.053Z,66.70
2018-11-01T08:55:15.469Z,64.90
2018-11-01T08:57:45.192Z,64.70
2018-11-01T09:00:14.248Z,64.90
2018-11-01T09:02:43.248Z,65.50
2018-11-01T09:05:13.540Z,64.90
2018-11-01T09:07:43.699Z,65.40
2018-11-01T09:10:13.896Z,64.70
2018-11-01T09:12:42.473Z,65.40
2018-11-01T09:15:12.696Z,65.20
2018-11-01T09:17:42.349Z,65.60
2018-11-01T09:20:11.612Z,66.00
2018-11-01T09:22:41.828Z,65.70
2018-11-01T09:25:10.632Z,66.70
2018-11-01T09:27:39.089Z,65.60
2018-11-01T09:30:11.302Z,66.30
2018-11-01T09:32:40.432Z,68.70
2018-11-01T09:35:09.630Z,67.90
2018-11-01T09:37:39.361Z,67.40
2018-11-01T09:40:10.084Z,68.50
2018-11-01T09:42:38.701Z,69.70
2018-11-01T09:45:07.691Z,71.00
2018-11-01T09:47:36.687Z,70.30
2018-11-01T09:50:06.808Z,70.80
2018-11-01T09:52:35.866Z,71.70
2018-11-01T09:55:04.908Z,72.50
2018-11-01T09:57:33.450Z,72.10
2018-11-01T10:00:02.268Z,72.20
2018-11-01T10:02:30.692Z,71.70
2018-11-01T10:04:59.633Z,70.50
2018-11-01T10:07:29.121Z,70.50
2018-11-01T10:09:57.926Z,69.70
2018-11-01T10:12:27.063Z,70.30
2018-11-01T10:14:56.060Z,69.10
2018-11-01T10:17:24.933Z,65.70
2018-11-01T10:19:52.985Z,66.30
2018-11-01T10:22:21.416Z,66.70
2018-11-01T10:24:50.190Z,66.80
2018-11-01T10:27:19.975Z,66.10
2018-11-01T10:29:47.734Z,65.30
2018-11-01T10:32:16.324Z,63.20
2018-11-01T10:34:44.801Z,61.40
2018-11-01T10:37:13.232Z,58.70
2018-11-01T10:39:43.232Z,58.70
2018-11-01T10:42:12.266Z,60.10
2018-11-01T10:44:40.677Z,60.10
2018-11-01T10:47:10.396Z,59.20
2018-11-01T10:49:38.772Z,58.70
2018-11-01T10:52:07.174Z,58.70
2018-11-01T10:54:35.937Z,59.00
2018-11-01T10:57:04.417Z,59.40
2018-11-01T10:59:32.973Z,59.30
2018-11-01T11:02:07.073Z,58.60
2018-11-01T11:04:35.755Z,58.60
2018-11-01T11:07:04.717Z,57.80
2018-11-01T11:09:33.248Z,59.20
2018-11-01T11:12:02.871Z,58.60
2018-11-01T11:14:31.894Z,58.80
2018-11-01T11:17:00.729Z,58.30
2018-11-01T11:19:29.078Z,57.40
2018-11-01T11:21:57.584Z,55.90
2018-11-01T11:24:26.205Z,55.90
2018-11-01T11:26:54.886Z,55.20
2018-11-01T11:29:23.335Z,55.80
2018-11-01T11:31:52.040Z,55.60
2018-11-01T11:34:20.887Z,55.00
2018-11-01T11:36:49.524Z,55.50
2018-11-01T11:39:18.046Z,54.10
2018-11-01T11:41:46.321Z,52.80
2018-11-01T11:44:14.748Z,53.30
2018-11-01T11:46:43.197Z,51.50
2018-11-01T11:49:11.691Z,52.10
2018-11-01T11:54:09.265Z,51.50
2018-11-01T11:56:37.641Z,52.00
2018-11-01T11:59:06.468Z,52.90
2018-11-01T12:01:34.880Z,53.10
2018-11-01T12:04:04.283Z,53.10
2018-11-01T12:06:32.940Z,52.90
2018-11-01T12:09:02.495Z,52.80
2018-11-01T12:11:30.923Z,52.20
2018-11-01T12:13:59.889Z,52.20
2018-11-01T12:16:28.602Z,52.20
2018-11-01T12:18:57.173Z,52.50
2018-11-01T12:21:25.607Z,51.20
2018-11-01T12:23:54.404Z,51.30
2018-11-01T12:26:22.781Z,50.50
2018-11-01T12:28:51.196Z,49.80
2018-11-01T12:31:19.874Z,50.00
2018-11-01T12:33:48.291Z,48.90
2018-11-01T12:36:16.789Z,49.30
2018-11-01T12:38:45.270Z,48.60
2018-11-01T12:41:13.916Z,47.70
2018-11-01T12:43:42.316Z,45.50
2018-11-01T12:46:11.545Z,46.10
2018-11-01T12:48:39.958Z,44.00
2018-11-01T12:51:08.341Z,45.30
2018-11-01T12:53:36.821Z,46.70
2018-11-01T12:56:05.603Z,47.00
2018-11-01T12:58:33.985Z,47.40
2018-11-01T13:01:02.478Z,46.10
2018-11-01T13:03:31.362Z,46.90
2018-11-01T13:05:59.826Z,46.70
2018-11-01T13:08:28.334Z,47.30
2018-11-01T13:10:58.576Z,47.70
2018-11-01T13:13:27.490Z,46.70
2018-11-01T13:15:55.919Z,45.00
2018-11-01T13:18:24.527Z,44.50
2018-11-01T13:20:53.464Z,40.20
2018-11-01T13:23:22.032Z,40.30
2018-11-01T13:25:50.447Z,37.80
2018-11-01T13:28:18.869Z,38.20
2018-11-01T13:30:47.545Z,36.50
2018-11-01T13:33:16.285Z,37.80
2018-11-01T13:35:45.529Z,36.00
2018-11-01T13:38:14.192Z,35.50
2018-11-01T13:40:44.754Z,35.10
2018-11-01T13:43:12.901Z,35.40
2018-11-01T13:45:41.300Z,36.40
2018-11-01T13:48:09.784Z,35.00
2018-11-01T13:50:38.566Z,34.30
2018-11-01T13:53:07.054Z,33.50
2018-11-01T13:55:35.541Z,32.50
2018-11-01T13:58:04.188Z,32.90
2018-11-01T14:00:33.498Z,31.30
2018-11-01T14:03:02.730Z,31.20
2018-11-01T14:05:31.481Z,31.40
2018-11-01T14:08:00.713Z,31.60
2018-11-01T14:10:29.481Z,31.30
2018-11-01T14:12:58.230Z,32.50
2018-11-01T14:15:27.087Z,31.70
2018-11-01T14:17:55.252Z,32.20
2018-11-01T14:20:23.964Z,28.80
2018-11-01T14:22:52.366Z,29.50
2018-11-01T14:25:20.865Z,28.60
2018-11-01T14:27:50.580Z,28.40
2018-11-01T14:30:18.965Z,28.90
2018-11-01T14:32:48.058Z,29.20
2018-11-01T14:35:16.679Z,30.00
2018-11-01T14:37:45.279Z,31.60
2018-11-01T14:40:14.461Z,31.90
2018-11-01T14:42:42.978Z,31.90
2018-11-01T14:45:13.037Z,31.70
2018-11-01T14:47:41.658Z,32.80
2018-11-01T14:50:10.881Z,30.40
2018-11-01T14:52:42.040Z,30.30
2018-11-01T14:55:11.753Z,30.70
2018-11-01T14:57:41.611Z,31.90
2018-11-01T15:00:09.238Z,31.20
2018-11-01T15:02:37.964Z,31.00
2018-11-01T15:05:07.330Z,30.00
2018-11-01T15:07:35.768Z,30.00
2018-11-01T15:10:05.345Z,34.00
2018-11-01T15:12:34.106Z,35.00
2018-11-01T15:15:03.941Z,35.60
2018-11-01T15:17:32.387Z,35.30
2018-11-01T15:20:01.086Z,35.90
2018-11-01T15:22:29.799Z,36.50
2018-11-01T15:24:58.632Z,35.60
2018-11-01T15:27:27.702Z,36.70
2018-11-01T15:29:56.524Z,41.10
2018-11-01T15:32:26.560Z,41.80
2018-11-01T15:34:55.164Z,47.20
2018-11-01T15:37:24.776Z,47.90
2018-11-01T15:39:54.374Z,48.50
2018-11-01T15:42:23.213Z,47.00
2018-11-01T15:44:52.313Z,49.30
2018-11-01T15:47:21.118Z,51.70
2018-11-01T15:49:50.589Z,52.20
2018-11-01T15:52:22.429Z,53.50
2018-11-01T15:54:51.169Z,55.00
2018-11-01T15:57:20.012Z,56.00
2018-11-01T15:59:49.072Z,54.50
2018-11-01T16:02:17.559Z,54.40
2018-11-01T16:04:46.898Z,55.00
2018-11-01T16:07:15.365Z,56.30
2018-11-01T16:09:44.087Z,59.20
2018-11-01T16:12:12.709Z,59.70
2018-11-01T16:14:41.193Z,59.50
2018-11-01T16:17:09.854Z,59.40
2018-11-01T16:19:38.792Z,57.50
2018-11-01T16:22:08.005Z,57.80
2018-11-01T16:24:36.959Z,58.30
2018-11-01T16:27:05.869Z,59.30
2018-11-01T16:29:34.998Z,60.50
2018-11-01T16:32:04.184Z,61.10
2018-11-01T16:34:33.069Z,61.60
2018-11-01T16:37:01.710Z,61.60
2018-11-01T16:39:31.754Z,61.80
2018-11-01T16:42:00.598Z,62.30
2018-11-01T16:44:29.010Z,63.00
2018-11-01T16:46:57.397Z,63.70
2018-11-01T16:49:26.599Z,64.40
2018-11-01T16:51:55.996Z,65.40
2018-11-01T16:54:24.357Z,65.90
2018-11-01T16:56:53.101Z,66.30
2018-11-01T16:59:21.716Z,66.80
2018-11-01T17:01:50.630Z,67.80
2018-11-01T17:04:19.322Z,66.70
2018-11-01T17:06:49.477Z,67.40
2018-11-01T17:09:17.818Z,63.90
2018-11-01T17:11:46.701Z,64.30
2018-11-01T17:14:15.070Z,65.00
2018-11-01T17:16:43.473Z,65.90
2018-11-01T17:19:11.852Z,67.50
2018-11-01T17:21:40.924Z,67.20
2018-11-01T17:24:09.761Z,67.10
2018-11-01T17:26:38.627Z,67.50
2018-11-01T17:29:07.032Z,68.70
2018-11-01T17:31:35.802Z,70.10
2018-11-01T17:34:04.856Z,70.20
2018-11-01T17:36:33.901Z,71.30
2018-11-01T17:39:03.267Z,70.30
2018-11-01T17:41:31.880Z,70.90
2018-11-01T17:44:01.000Z,70.50
2018-11-01T17:46:29.549Z,69.00
2018-11-01T17:51:26.775Z,68.60
2018-11-01T17:53:56.341Z,68.80
2018-11-01T17:56:25.174Z,69.30
2018-11-01T17:58:54.254Z,69.50
2018-11-01T18:01:23.147Z,70.10
2018-11-01T18:03:53.222Z,69.50
2018-11-01T18:06:21.737Z,69.50
2018-11-01T18:08:50.792Z,70.10
2018-11-01T18:11:20.522Z,69.70
2018-11-01T18:13:49.154Z,69.30
2018-11-01T18:16:17.987Z,69.70
2018-11-01T18:18:47.468Z,68.70
2018-11-01T18:21:16.701Z,72.10
2018-11-01T18:23:45.993Z,68.80
2018-11-01T18:26:14.963Z,68.60
2018-11-01T18:28:43.670Z,69.00
2018-11-01T18:31:13.128Z,68.00
2018-11-01T18:33:41.764Z,68.50
2018-11-01T18:36:11.606Z,70.40
2018-11-01T18:38:40.295Z,69.00
2018-11-01T18:41:09.085Z,68.00
2018-11-01T18:43:37.625Z,68.00
2018-11-01T18:46:06.413Z,69.90
2018-11-01T18:48:34.957Z,69.30
2018-11-01T18:51:03.388Z,67.60
2018-11-01T18:53:32.086Z,67.80
2018-11-01T18:56:00.704Z,67.00
2018-11-01T18:58:29.356Z,67.70
2018-11-01T19:00:57.840Z,67.60
2018-11-01T19:03:31.996Z,66.60
2018-11-01T19:06:01.607Z,67.20
2018-11-01T19:08:30.415Z,67.60
2018-11-01T19:10:59.169Z,68.20
2018-11-01T19:13:28.133Z,65.80
2018-11-01T19:15:56.659Z,66.30
2018-11-01T19:18:25.045Z,66.70
2018-11-01T19:20:53.601Z,65.90
2018-11-01T19:23:22.426Z,65.80
2018-11-01T19:25:51.937Z,65.20
2018-11-01T19:28:20.455Z,65.80
2018-11-01T19:30:48.895Z,65.80
2018-11-01T19:33:18.311Z,66.40
2018-11-01T19:35:47.420Z,67.20
2018-11-01T19:38:16.200Z,67.90
2018-11-01T19:40:44.692Z,68.50
2018-11-01T19:43:13.563Z,69.20
2018-11-01T19:45:42.748Z,70.70
2018-11-01T19:48:11.439Z,71.60
2018-11-01T19:50:40.212Z,71.90
2018-11-01T19:53:08.771Z,71.60
2018-11-01T19:55:38.125Z,72.60
2018-11-01T19:58:06.545Z,71.60
2018-11-01T20:00:35.942Z,74.80
2018-11-01T20:03:05.208Z,72.70
2018-11-01T20:05:34.074Z,72.60
2018-11-01T20:08:03.162Z,73.40
2018-11-01T20:10:31.840Z,74.80
2018-11-01T20:13:01.090Z,73.50
2018-11-01T20:15:29.662Z,74.30
2018-11-01T20:17:58.471Z,75.10
2018-11-01T20:20:26.877Z,75.70
2018-11-01T20:22:56.113Z,76.90
2018-11-01T20:25:24.532Z,77.20
2018-11-01T20:27:53.010Z,77.80
2018-11-01T20:30:21.844Z,75.30
2018-11-01T20:32:50.365Z,77.00
2018-11-01T20:35:19.309Z,76.70
2018-11-01T20:37:48.683Z,77.80
2018-11-01T20:40:17.033Z,77.30
2018-11-01T20:42:45.416Z,71.90
2018-11-01T20:45:14.225Z,72.70
2018-11-01T20:47:43.158Z,72.90
2018-11-01T20:50:12.720Z,72.10
2018-11-01T20:52:41.233Z,73.40
2018-11-01T20:55:11.791Z,71.20
2018-11-01T20:57:40.433Z,72.20
2018-11-01T21:00:11.536Z,73.00
2018-11-01T21:02:40.640Z,71.90
2018-11-01T21:05:09.438Z,71.60
2018-11-01T21:07:37.809Z,72.20
2018-11-01T21:10:08.005Z,72.70
2018-11-01T21:12:37.189Z,73.90
2018-11-01T21:15:08.902Z,74.10
2018-11-01T21:17:37.592Z,73.70
2018-11-01T21:20:06.185Z,74.10
2018-11-01T21:22:36.293Z,73.80
2018-11-01T21:25:05.166Z,73.60
2018-11-01T21:27:33.669Z,73.80
2018-11-01T21:30:02.343Z,72.70
2018-11-01T21:32:31.169Z,73.40
2018-11-01T21:35:00.117Z,73.40
2018-11-01T21:37:28.748Z,73.80
2018-11-01T21:39:58.971Z,73.40
2018-11-01T21:42:27.500Z,73.90
2018-11-01T21:44:55.846Z,73.60
2018-11-01T21:47:24.661Z,73.80
2018-11-01T21:49:53.462Z,74.00
2018-11-01T21:52:22.207Z,74.00
2018-11-01T21:54:50.579Z,74.50
2018-11-01T21:57:19.169Z,74.60
2018-11-01T21:59:48.260Z,75.00
2018-11-01T22:02:16.790Z,76.50
2018-11-01T22:04:45.351Z,77.00
2018-11-01T22:07:14.547Z,77.20
2018-11-01T22:09:43.416Z,76.90
2018-11-01T22:12:12.215Z,77.20
2018-11-01T22:14:40.885Z,76.20
2018-11-01T22:17:09.398Z,77.20
2018-11-01T22:19:38.393Z,78.60
2018-11-01T22:22:07.154Z,77.90
2018-11-01T22:24:36.050Z,77.90
2018-11-01T22:27:05.040Z,79.40
2018-11-01T22:29:33.622Z,79.80
2018-11-01T22:32:02.044Z,81.10
2018-11-01T22:34:31.681Z,80.20
2018-11-01T22:37:00.191Z,80.30
2018-11-01T22:39:28.880Z,80.90
2018-11-01T22:41:57.476Z,81.60
2018-11-01T22:44:25.940Z,81.90
2018-11-01T22:46:54.732Z,82.50
2018-11-01T22:49:24.314Z,82.00
2018-11-01T22:51:53.110Z,82.50
2018-11-01T22:54:21.816Z,81.30
2018-11-01T22:56:50.651Z,80.80
2018-11-01T22:59:19.057Z,80.00
2018-11-01T23:01:47.757Z,80.00
2018-11-01T23:06:44.455Z,81.20
2018-11-01T23:09:12.823Z,79.90
2018-11-01T23:11:41.521Z,80.70
2018-11-01T23:14:10.679Z,81.20
2018-11-01T23:16:39.196Z,82.40
2018-11-01T23:19:07.767Z,82.70
2018-11-01T23:21:36.784Z,81.50
2018-11-01T23:24:05.820Z,82.90
2018-11-01T23:26:34.348Z,83.60
2018-11-01T23:29:03.172Z,84.30
2018-11-01T23:31:31.703Z,84.30
2018-11-01T23:34:01.408Z,84.60
2018-11-01T23:36:35.886Z,84.20
2018-11-01T23:39:13.291Z,84.40
2018-11-01T23:41:48.566Z,84.10
2018-11-01T23:44:23.042Z,81.60
2018-11-01T23:46:57.240Z,80.90
2018-11-01T23:49:28.472Z,79.80
2018-11-01T23:52:03.349Z,79.20
2018-11-01T23:54:31.712Z,78.30
2018-11-01T23:57:00.122Z,77.60
2018-11-01T23:59:29.054Z,77.00
